sensor_id;sensor_type;location;lat;lon;timestamp;P1;durP1;ratioP1;P2;durP2;ratioP2
37593;SDS011;23441;50.856;6.076;2023-05-16T00:02:14;3.45;;;3.13;;
37593;SDS011;23441;50.856;6.076;2023-05-16T00:04:40;5.55;;;2.78;;
37593;SDS011;23441;50.856;6.076;2023-05-16T00:07:06;7.15;;;2.70;;
37593;SDS011;23441;50.856;6.076;2023-05-16T00:09:32;4.20;;;2.70;;
37593;SDS011;23441;50.856;6.076;2023-05-16T00:11:57;4.22;;;2.30;;
37593;SDS011;23441;50.856;6.076;2023-05-16T00:14:23;4.93;;;2.50;;
37593;SDS011;23441;50.856;6.076;2023-05-16T00:16:51;5.53;;;2.05;;
37593;SDS011;23441;50.856;6.076;2023-05-16T00:19:22;3.10;;;1.92;;
37593;SDS011;23441;50.856;6.076;2023-05-16T00:21:48;6.35;;;2.30;;
37593;SDS011;23441;50.856;6.076;2023-05-16T00:24:13;5.70;;;1.92;;
37593;SDS011;23441;50.856;6.076;2023-05-16T00:26:39;3.55;;;1.77;;
37593;SDS011;23441;50.856;6.076;2023-05-16T00:29:05;8.00;;;2.08;;
37593;SDS011;23441;50.856;6.076;2023-05-16T00:31:31;4.85;;;1.90;;
37593;SDS011;23441;50.856;6.076;2023-05-16T00:33:56;6.35;;;2.30;;
37593;SDS011;23441;50.856;6.076;2023-05-16T00:36:22;4.40;;;2.00;;
37593;SDS011;23441;50.856;6.076;2023-05-16T00:38:48;3.33;;;2.00;;
37593;SDS011;23441;50.856;6.076;2023-05-16T00:41:13;6.95;;;2.28;;
37593;SDS011;23441;50.856;6.076;2023-05-16T00:43:40;7.47;;;2.45;;
37593;SDS011;23441;50.856;6.076;2023-05-16T00:46:06;6.88;;;2.30;;
37593;SDS011;23441;50.856;6.076;2023-05-16T00:48:31;5.95;;;2.35;;
37593;SDS011;23441;50.856;6.076;2023-05-16T00:50:57;5.30;;;2.22;;
37593;SDS011;23441;50.856;6.076;2023-05-16T00:53:24;5.35;;;2.22;;
37593;SDS011;23441;50.856;6.076;2023-05-16T00:55:50;5.90;;;2.17;;
37593;SDS011;23441;50.856;6.076;2023-05-16T00:58:17;6.72;;;2.60;;
37593;SDS011;23441;50.856;6.076;2023-05-16T01:00:43;5.35;;;2.40;;
37593;SDS011;23441;50.856;6.076;2023-05-16T01:03:11;8.13;;;2.60;;
37593;SDS011;23441;50.856;6.076;2023-05-16T01:05:37;5.32;;;2.78;;
37593;SDS011;23441;50.856;6.076;2023-05-16T01:08:03;6.25;;;2.78;;
37593;SDS011;23441;50.856;6.076;2023-05-16T01:13:21;8.27;;;2.60;;
37593;SDS011;23441;50.856;6.076;2023-05-16T01:15:58;7.65;;;2.58;;
37593;SDS011;23441;50.856;6.076;2023-05-16T01:21:30;6.80;;;2.97;;
37593;SDS011;23441;50.856;6.076;2023-05-16T01:26:57;12.95;;;3.03;;
37593;SDS011;23441;50.856;6.076;2023-05-16T01:29:24;11.80;;;3.15;;
37593;SDS011;23441;50.856;6.076;2023-05-16T01:31:50;14.18;;;3.35;;
37593;SDS011;23441;50.856;6.076;2023-05-16T01:34:16;12.13;;;2.90;;
37593;SDS011;23441;50.856;6.076;2023-05-16T01:36:47;12.32;;;3.47;;
37593;SDS011;23441;50.856;6.076;2023-05-16T01:39:30;17.17;;;3.67;;
37593;SDS011;23441;50.856;6.076;2023-05-16T01:42:06;7.40;;;2.67;;
37593;SDS011;23441;50.856;6.076;2023-05-16T01:44:35;9.00;;;2.85;;
37593;SDS011;23441;50.856;6.076;2023-05-16T01:47:06;8.32;;;2.90;;
37593;SDS011;23441;50.856;6.076;2023-05-16T01:49:45;7.10;;;3.60;;
37593;SDS011;23441;50.856;6.076;2023-05-16T01:52:19;12.70;;;3.17;;
37593;SDS011;23441;50.856;6.076;2023-05-16T01:54:52;17.88;;;3.65;;
37593;SDS011;23441;50.856;6.076;2023-05-16T01:57:23;13.93;;;4.10;;
37593;SDS011;23441;50.856;6.076;2023-05-16T01:59:50;16.38;;;3.55;;
37593;SDS011;23441;50.856;6.076;2023-05-16T02:02:19;8.50;;;3.60;;
37593;SDS011;23441;50.856;6.076;2023-05-16T02:04:45;15.00;;;3.83;;
37593;SDS011;23441;50.856;6.076;2023-05-16T02:07:11;27.23;;;4.68;;
37593;SDS011;23441;50.856;6.076;2023-05-16T02:09:39;18.02;;;3.80;;
37593;SDS011;23441;50.856;6.076;2023-05-16T02:12:04;12.93;;;4.97;;
37593;SDS011;23441;50.856;6.076;2023-05-16T02:14:30;17.75;;;3.80;;
37593;SDS011;23441;50.856;6.076;2023-05-16T02:16:56;14.40;;;3.38;;
37593;SDS011;23441;50.856;6.076;2023-05-16T02:19:22;16.15;;;4.20;;
37593;SDS011;23441;50.856;6.076;2023-05-16T02:21:47;16.10;;;3.75;;
37593;SDS011;23441;50.856;6.076;2023-05-16T02:24:14;9.43;;;3.45;;
37593;SDS011;23441;50.856;6.076;2023-05-16T02:26:39;18.42;;;3.83;;
37593;SDS011;23441;50.856;6.076;2023-05-16T02:29:05;16.17;;;3.88;;
37593;SDS011;23441;50.856;6.076;2023-05-16T02:31:31;15.45;;;3.63;;
37593;SDS011;23441;50.856;6.076;2023-05-16T02:33:58;12.88;;;3.25;;
37593;SDS011;23441;50.856;6.076;2023-05-16T02:36:25;16.25;;;4.10;;
37593;SDS011;23441;50.856;6.076;2023-05-16T02:38:51;10.57;;;3.53;;
37593;SDS011;23441;50.856;6.076;2023-05-16T02:41:17;16.90;;;3.90;;
37593;SDS011;23441;50.856;6.076;2023-05-16T02:43:42;11.45;;;3.47;;
37593;SDS011;23441;50.856;6.076;2023-05-16T02:48:50;16.15;;;3.20;;
37593;SDS011;23441;50.856;6.076;2023-05-16T02:51:16;13.38;;;3.47;;
37593;SDS011;23441;50.856;6.076;2023-05-16T02:53:42;22.13;;;4.00;;
37593;SDS011;23441;50.856;6.076;2023-05-16T02:56:08;16.95;;;3.80;;
37593;SDS011;23441;50.856;6.076;2023-05-16T02:58:34;15.00;;;3.72;;
37593;SDS011;23441;50.856;6.076;2023-05-16T03:01:00;13.02;;;3.85;;
37593;SDS011;23441;50.856;6.076;2023-05-16T03:03:25;12.05;;;3.80;;
37593;SDS011;23441;50.856;6.076;2023-05-16T03:05:51;13.65;;;3.58;;
37593;SDS011;23441;50.856;6.076;2023-05-16T03:08:17;13.60;;;3.55;;
37593;SDS011;23441;50.856;6.076;2023-05-16T03:10:42;17.58;;;4.28;;
37593;SDS011;23441;50.856;6.076;2023-05-16T03:13:08;16.55;;;4.65;;
37593;SDS011;23441;50.856;6.076;2023-05-16T03:15:34;27.67;;;5.55;;
37593;SDS011;23441;50.856;6.076;2023-05-16T03:17:59;18.83;;;3.65;;
37593;SDS011;23441;50.856;6.076;2023-05-16T03:20:25;12.15;;;3.42;;
37593;SDS011;23441;50.856;6.076;2023-05-16T03:22:50;13.20;;;3.40;;
37593;SDS011;23441;50.856;6.076;2023-05-16T03:25:16;13.80;;;3.90;;
37593;SDS011;23441;50.856;6.076;2023-05-16T03:27:42;24.98;;;3.97;;
37593;SDS011;23441;50.856;6.076;2023-05-16T03:30:07;14.98;;;3.45;;
37593;SDS011;23441;50.856;6.076;2023-05-16T03:32:33;13.05;;;3.33;;
37593;SDS011;23441;50.856;6.076;2023-05-16T03:34:59;15.30;;;4.05;;
37593;SDS011;23441;50.856;6.076;2023-05-16T03:37:25;17.67;;;3.80;;
37593;SDS011;23441;50.856;6.076;2023-05-16T03:39:51;19.20;;;4.30;;
37593;SDS011;23441;50.856;6.076;2023-05-16T03:42:16;20.83;;;4.00;;
37593;SDS011;23441;50.856;6.076;2023-05-16T03:44:42;18.75;;;3.95;;
37593;SDS011;23441;50.856;6.076;2023-05-16T03:47:08;19.65;;;4.20;;
37593;SDS011;23441;50.856;6.076;2023-05-16T03:49:34;16.23;;;4.78;;
37593;SDS011;23441;50.856;6.076;2023-05-16T03:52:01;19.20;;;3.35;;
37593;SDS011;23441;50.856;6.076;2023-05-16T03:54:27;19.40;;;3.72;;
37593;SDS011;23441;50.856;6.076;2023-05-16T03:56:53;15.70;;;3.55;;
37593;SDS011;23441;50.856;6.076;2023-05-16T03:59:19;20.33;;;3.75;;
37593;SDS011;23441;50.856;6.076;2023-05-16T04:01:44;20.55;;;3.65;;
37593;SDS011;23441;50.856;6.076;2023-05-16T04:04:10;20.88;;;4.00;;
37593;SDS011;23441;50.856;6.076;2023-05-16T04:06:36;20.90;;;3.60;;
37593;SDS011;23441;50.856;6.076;2023-05-16T04:09:02;14.25;;;3.42;;
37593;SDS011;23441;50.856;6.076;2023-05-16T04:11:27;15.13;;;3.40;;
37593;SDS011;23441;50.856;6.076;2023-05-16T04:13:53;16.27;;;3.33;;
37593;SDS011;23441;50.856;6.076;2023-05-16T04:16:18;15.98;;;4.28;;
37593;SDS011;23441;50.856;6.076;2023-05-16T04:18:44;15.43;;;3.25;;
37593;SDS011;23441;50.856;6.076;2023-05-16T04:21:10;17.70;;;3.95;;
37593;SDS011;23441;50.856;6.076;2023-05-16T04:23:39;13.45;;;3.30;;
37593;SDS011;23441;50.856;6.076;2023-05-16T04:26:05;17.80;;;3.20;;
37593;SDS011;23441;50.856;6.076;2023-05-16T04:28:31;18.30;;;3.90;;
37593;SDS011;23441;50.856;6.076;2023-05-16T04:30:56;17.85;;;5.22;;
37593;SDS011;23441;50.856;6.076;2023-05-16T04:33:22;18.77;;;4.18;;
37593;SDS011;23441;50.856;6.076;2023-05-16T04:35:48;21.25;;;4.00;;
37593;SDS011;23441;50.856;6.076;2023-05-16T04:38:14;21.52;;;3.78;;
37593;SDS011;23441;50.856;6.076;2023-05-16T04:40:39;17.10;;;4.65;;
37593;SDS011;23441;50.856;6.076;2023-05-16T04:43:08;13.75;;;3.67;;
37593;SDS011;23441;50.856;6.076;2023-05-16T04:45:34;17.00;;;3.50;;
37593;SDS011;23441;50.856;6.076;2023-05-16T04:48:00;27.42;;;4.30;;
37593;SDS011;23441;50.856;6.076;2023-05-16T04:50:26;16.92;;;4.15;;
37593;SDS011;23441;50.856;6.076;2023-05-16T04:52:51;23.20;;;4.93;;
37593;SDS011;23441;50.856;6.076;2023-05-16T04:55:17;15.93;;;4.75;;
37593;SDS011;23441;50.856;6.076;2023-05-16T04:57:42;13.88;;;3.30;;
37593;SDS011;23441;50.856;6.076;2023-05-16T05:00:08;19.05;;;3.70;;
37593;SDS011;23441;50.856;6.076;2023-05-16T05:02:36;21.63;;;3.00;;
37593;SDS011;23441;50.856;6.076;2023-05-16T05:05:02;15.27;;;3.53;;
37593;SDS011;23441;50.856;6.076;2023-05-16T05:07:28;19.25;;;3.67;;
37593;SDS011;23441;50.856;6.076;2023-05-16T05:09:54;16.42;;;3.92;;
37593;SDS011;23441;50.856;6.076;2023-05-16T05:12:20;13.57;;;3.35;;
37593;SDS011;23441;50.856;6.076;2023-05-16T05:14:46;18.48;;;3.90;;
37593;SDS011;23441;50.856;6.076;2023-05-16T05:17:12;15.27;;;3.40;;
37593;SDS011;23441;50.856;6.076;2023-05-16T05:19:37;15.20;;;4.18;;
37593;SDS011;23441;50.856;6.076;2023-05-16T05:22:03;18.67;;;3.30;;
37593;SDS011;23441;50.856;6.076;2023-05-16T05:24:29;22.33;;;4.07;;
37593;SDS011;23441;50.856;6.076;2023-05-16T05:26:54;22.85;;;3.45;;
37593;SDS011;23441;50.856;6.076;2023-05-16T05:29:20;19.38;;;3.80;;
37593;SDS011;23441;50.856;6.076;2023-05-16T05:31:46;16.50;;;3.22;;
37593;SDS011;23441;50.856;6.076;2023-05-16T05:34:12;13.55;;;2.97;;
37593;SDS011;23441;50.856;6.076;2023-05-16T05:36:38;13.57;;;3.30;;
37593;SDS011;23441;50.856;6.076;2023-05-16T05:39:04;17.60;;;3.25;;
37593;SDS011;23441;50.856;6.076;2023-05-16T05:41:30;19.83;;;3.72;;
37593;SDS011;23441;50.856;6.076;2023-05-16T05:43:55;15.05;;;3.83;;
37593;SDS011;23441;50.856;6.076;2023-05-16T05:46:21;14.05;;;3.50;;
37593;SDS011;23441;50.856;6.076;2023-05-16T05:48:48;10.02;;;2.90;;
37593;SDS011;23441;50.856;6.076;2023-05-16T05:51:14;16.05;;;3.30;;
37593;SDS011;23441;50.856;6.076;2023-05-16T05:53:40;18.55;;;3.10;;
37593;SDS011;23441;50.856;6.076;2023-05-16T05:56:05;11.43;;;3.00;;
37593;SDS011;23441;50.856;6.076;2023-05-16T05:58:31;20.00;;;3.22;;
37593;SDS011;23441;50.856;6.076;2023-05-16T06:00:57;14.63;;;2.72;;
37593;SDS011;23441;50.856;6.076;2023-05-16T06:03:23;17.88;;;3.20;;
37593;SDS011;23441;50.856;6.076;2023-05-16T06:05:48;14.77;;;2.70;;
37593;SDS011;23441;50.856;6.076;2023-05-16T06:08:14;12.07;;;2.95;;
37593;SDS011;23441;50.856;6.076;2023-05-16T06:10:40;16.65;;;3.25;;
37593;SDS011;23441;50.856;6.076;2023-05-16T06:13:05;18.50;;;2.97;;
37593;SDS011;23441;50.856;6.076;2023-05-16T06:15:31;13.38;;;2.88;;
37593;SDS011;23441;50.856;6.076;2023-05-16T06:17:57;16.65;;;3.40;;
37593;SDS011;23441;50.856;6.076;2023-05-16T06:20:23;22.70;;;2.88;;
37593;SDS011;23441;50.856;6.076;2023-05-16T06:22:48;9.57;;;2.50;;
37593;SDS011;23441;50.856;6.076;2023-05-16T06:25:14;8.85;;;2.50;;
37593;SDS011;23441;50.856;6.076;2023-05-16T06:27:39;10.82;;;2.72;;
37593;SDS011;23441;50.856;6.076;2023-05-16T06:30:05;12.88;;;3.20;;
37593;SDS011;23441;50.856;6.076;2023-05-16T06:32:31;15.23;;;2.95;;
37593;SDS011;23441;50.856;6.076;2023-05-16T06:34:57;16.80;;;2.95;;
37593;SDS011;23441;50.856;6.076;2023-05-16T06:37:22;16.20;;;3.03;;
37593;SDS011;23441;50.856;6.076;2023-05-16T06:39:50;13.10;;;2.85;;
37593;SDS011;23441;50.856;6.076;2023-05-16T06:42:15;8.38;;;2.67;;
37593;SDS011;23441;50.856;6.076;2023-05-16T06:44:41;17.58;;;3.38;;
37593;SDS011;23441;50.856;6.076;2023-05-16T06:47:06;12.23;;;3.08;;
37593;SDS011;23441;50.856;6.076;2023-05-16T06:49:32;15.00;;;4.60;;
37593;SDS011;23441;50.856;6.076;2023-05-16T06:51:58;11.45;;;3.35;;
37593;SDS011;23441;50.856;6.076;2023-05-16T06:54:24;14.77;;;2.80;;
37593;SDS011;23441;50.856;6.076;2023-05-16T06:56:50;9.52;;;2.85;;
37593;SDS011;23441;50.856;6.076;2023-05-16T06:59:16;12.73;;;2.88;;
37593;SDS011;23441;50.856;6.076;2023-05-16T07:01:41;10.52;;;2.85;;
37593;SDS011;23441;50.856;6.076;2023-05-16T07:04:07;16.48;;;3.90;;
37593;SDS011;23441;50.856;6.076;2023-05-16T07:06:32;14.40;;;2.88;;
37593;SDS011;23441;50.856;6.076;2023-05-16T07:08:59;8.95;;;2.45;;
37593;SDS011;23441;50.856;6.076;2023-05-16T07:11:26;18.42;;;3.20;;
37593;SDS011;23441;50.856;6.076;2023-05-16T07:13:51;13.85;;;2.78;;
37593;SDS011;23441;50.856;6.076;2023-05-16T07:16:17;15.02;;;2.83;;
37593;SDS011;23441;50.856;6.076;2023-05-16T07:18:43;14.60;;;2.80;;
37593;SDS011;23441;50.856;6.076;2023-05-16T07:21:09;15.00;;;2.97;;
37593;SDS011;23441;50.856;6.076;2023-05-16T07:23:35;14.60;;;2.58;;
37593;SDS011;23441;50.856;6.076;2023-05-16T07:26:00;10.60;;;2.58;;
37593;SDS011;23441;50.856;6.076;2023-05-16T07:28:26;14.07;;;2.95;;
37593;SDS011;23441;50.856;6.076;2023-05-16T07:30:52;9.40;;;2.35;;
37593;SDS011;23441;50.856;6.076;2023-05-16T07:33:18;8.93;;;2.33;;
37593;SDS011;23441;50.856;6.076;2023-05-16T07:35:44;8.25;;;1.98;;
37593;SDS011;23441;50.856;6.076;2023-05-16T07:38:10;9.80;;;2.10;;
37593;SDS011;23441;50.856;6.076;2023-05-16T07:40:35;12.05;;;2.00;;
37593;SDS011;23441;50.856;6.076;2023-05-16T07:43:01;11.40;;;3.05;;
37593;SDS011;23441;50.856;6.076;2023-05-16T07:45:27;7.35;;;2.42;;
37593;SDS011;23441;50.856;6.076;2023-05-16T07:47:52;5.75;;;2.13;;
37593;SDS011;23441;50.856;6.076;2023-05-16T07:50:18;12.13;;;2.58;;
37593;SDS011;23441;50.856;6.076;2023-05-16T07:52:44;10.65;;;2.55;;
37593;SDS011;23441;50.856;6.076;2023-05-16T07:55:10;12.60;;;2.85;;
37593;SDS011;23441;50.856;6.076;2023-05-16T07:57:36;12.57;;;2.42;;
37593;SDS011;23441;50.856;6.076;2023-05-16T08:00:02;13.70;;;2.63;;
37593;SDS011;23441;50.856;6.076;2023-05-16T08:02:28;6.95;;;2.28;;
37593;SDS011;23441;50.856;6.076;2023-05-16T08:04:54;11.07;;;2.35;;
37593;SDS011;23441;50.856;6.076;2023-05-16T08:07:23;8.85;;;2.65;;
37593;SDS011;23441;50.856;6.076;2023-05-16T08:09:49;9.38;;;1.95;;
37593;SDS011;23441;50.856;6.076;2023-05-16T08:12:14;10.23;;;2.15;;
37593;SDS011;23441;50.856;6.076;2023-05-16T08:14:40;6.85;;;2.60;;
37593;SDS011;23441;50.856;6.076;2023-05-16T08:17:05;10.63;;;2.30;;
37593;SDS011;23441;50.856;6.076;2023-05-16T08:19:31;9.18;;;2.33;;
37593;SDS011;23441;50.856;6.076;2023-05-16T08:21:57;11.27;;;2.60;;
37593;SDS011;23441;50.856;6.076;2023-05-16T08:24:23;9.13;;;2.45;;
37593;SDS011;23441;50.856;6.076;2023-05-16T08:26:48;12.63;;;2.92;;
37593;SDS011;23441;50.856;6.076;2023-05-16T08:29:14;9.80;;;2.10;;
37593;SDS011;23441;50.856;6.076;2023-05-16T08:31:41;9.88;;;2.33;;
37593;SDS011;23441;50.856;6.076;2023-05-16T08:34:06;9.98;;;2.60;;
37593;SDS011;23441;50.856;6.076;2023-05-16T08:36:33;11.43;;;2.30;;
37593;SDS011;23441;50.856;6.076;2023-05-16T08:39:00;8.88;;;2.50;;
37593;SDS011;23441;50.856;6.076;2023-05-16T08:41:25;14.02;;;2.35;;
37593;SDS011;23441;50.856;6.076;2023-05-16T08:43:51;8.73;;;1.80;;
37593;SDS011;23441;50.856;6.076;2023-05-16T08:46:17;11.02;;;2.00;;
37593;SDS011;23441;50.856;6.076;2023-05-16T08:48:46;8.05;;;2.25;;
37593;SDS011;23441;50.856;6.076;2023-05-16T08:51:18;11.85;;;2.42;;
37593;SDS011;23441;50.856;6.076;2023-05-16T08:53:47;5.53;;;2.00;;
37593;SDS011;23441;50.856;6.076;2023-05-16T08:56:18;6.57;;;1.98;;
37593;SDS011;23441;50.856;6.076;2023-05-16T08:58:46;9.70;;;2.05;;
37593;SDS011;23441;50.856;6.076;2023-05-16T09:01:13;5.88;;;1.77;;
37593;SDS011;23441;50.856;6.076;2023-05-16T09:03:39;7.00;;;1.75;;
37593;SDS011;23441;50.856;6.076;2023-05-16T09:06:06;5.30;;;1.70;;
37593;SDS011;23441;50.856;6.076;2023-05-16T09:08:32;5.82;;;1.80;;
37593;SDS011;23441;50.856;6.076;2023-05-16T09:10:58;5.25;;;2.35;;
37593;SDS011;23441;50.856;6.076;2023-05-16T09:13:25;9.73;;;1.85;;
37593;SDS011;23441;50.856;6.076;2023-05-16T09:18:57;7.47;;;1.73;;
37593;SDS011;23441;50.856;6.076;2023-05-16T09:21:27;6.30;;;1.67;;
37593;SDS011;23441;50.856;6.076;2023-05-16T09:23:55;6.95;;;1.85;;
37593;SDS011;23441;50.856;6.076;2023-05-16T09:26:26;5.72;;;1.50;;
37593;SDS011;23441;50.856;6.076;2023-05-16T09:28:53;5.40;;;1.73;;
37593;SDS011;23441;50.856;6.076;2023-05-16T09:31:20;11.77;;;2.15;;
37593;SDS011;23441;50.856;6.076;2023-05-16T09:33:47;9.43;;;2.15;;
37593;SDS011;23441;50.856;6.076;2023-05-16T09:36:16;7.10;;;1.75;;
37593;SDS011;23441;50.856;6.076;2023-05-16T09:38:42;8.40;;;2.03;;
37593;SDS011;23441;50.856;6.076;2023-05-16T09:41:08;10.10;;;1.88;;
37593;SDS011;23441;50.856;6.076;2023-05-16T09:43:36;7.28;;;1.80;;
37593;SDS011;23441;50.856;6.076;2023-05-16T09:46:03;9.45;;;1.80;;
37593;SDS011;23441;50.856;6.076;2023-05-16T09:48:29;4.38;;;1.65;;
37593;SDS011;23441;50.856;6.076;2023-05-16T09:50:56;10.50;;;2.70;;
37593;SDS011;23441;50.856;6.076;2023-05-16T09:53:27;6.55;;;1.70;;
37593;SDS011;23441;50.856;6.076;2023-05-16T09:56:05;6.65;;;2.15;;
37593;SDS011;23441;50.856;6.076;2023-05-16T09:58:35;6.13;;;1.83;;
37593;SDS011;23441;50.856;6.076;2023-05-16T10:01:03;9.07;;;2.03;;
37593;SDS011;23441;50.856;6.076;2023-05-16T10:03:29;7.97;;;1.27;;
37593;SDS011;23441;50.856;6.076;2023-05-16T10:05:56;7.68;;;1.63;;
37593;SDS011;23441;50.856;6.076;2023-05-16T10:08:24;6.13;;;1.40;;
37593;SDS011;23441;50.856;6.076;2023-05-16T10:10:51;5.88;;;1.88;;
37593;SDS011;23441;50.856;6.076;2023-05-16T10:13:19;7.75;;;2.38;;
37593;SDS011;23441;50.856;6.076;2023-05-16T10:15:50;4.07;;;1.50;;
37593;SDS011;23441;50.856;6.076;2023-05-16T10:18:20;5.75;;;1.70;;
37593;SDS011;23441;50.856;6.076;2023-05-16T10:20:46;6.40;;;1.50;;
37593;SDS011;23441;50.856;6.076;2023-05-16T10:23:17;8.98;;;1.65;;
37593;SDS011;23441;50.856;6.076;2023-05-16T10:25:44;6.35;;;1.85;;
37593;SDS011;23441;50.856;6.076;2023-05-16T10:28:11;6.82;;;1.63;;
37593;SDS011;23441;50.856;6.076;2023-05-16T10:30:39;10.10;;;1.73;;
37593;SDS011;23441;50.856;6.076;2023-05-16T10:33:08;7.22;;;2.05;;
37593;SDS011;23441;50.856;6.076;2023-05-16T10:35:41;4.70;;;1.92;;
37593;SDS011;23441;50.856;6.076;2023-05-16T10:38:08;6.00;;;1.65;;
37593;SDS011;23441;50.856;6.076;2023-05-16T10:40:36;5.20;;;1.52;;
37593;SDS011;23441;50.856;6.076;2023-05-16T10:43:03;9.45;;;1.60;;
37593;SDS011;23441;50.856;6.076;2023-05-16T10:45:30;4.32;;;1.50;;
37593;SDS011;23441;50.856;6.076;2023-05-16T10:47:59;5.82;;;1.30;;
37593;SDS011;23441;50.856;6.076;2023-05-16T10:50:43;8.10;;;1.70;;
37593;SDS011;23441;50.856;6.076;2023-05-16T10:53:13;7.32;;;1.58;;
37593;SDS011;23441;50.856;6.076;2023-05-16T10:55:43;6.15;;;1.50;;
37593;SDS011;23441;50.856;6.076;2023-05-16T10:58:12;8.20;;;1.55;;
37593;SDS011;23441;50.856;6.076;2023-05-16T11:00:46;7.28;;;1.70;;
37593;SDS011;23441;50.856;6.076;2023-05-16T11:03:18;5.72;;;1.35;;
37593;SDS011;23441;50.856;6.076;2023-05-16T11:05:51;4.72;;;1.40;;
37593;SDS011;23441;50.856;6.076;2023-05-16T11:08:18;6.45;;;1.67;;
37593;SDS011;23441;50.856;6.076;2023-05-16T11:10:43;6.88;;;1.60;;
37593;SDS011;23441;50.856;6.076;2023-05-16T11:13:09;7.85;;;1.50;;
37593;SDS011;23441;50.856;6.076;2023-05-16T11:15:35;6.13;;;1.60;;
37593;SDS011;23441;50.856;6.076;2023-05-16T11:18:05;6.15;;;1.58;;
37593;SDS011;23441;50.856;6.076;2023-05-16T11:20:33;8.52;;;1.80;;
37593;SDS011;23441;50.856;6.076;2023-05-16T11:25:41;5.85;;;1.50;;
37593;SDS011;23441;50.856;6.076;2023-05-16T11:28:09;8.35;;;1.60;;
37593;SDS011;23441;50.856;6.076;2023-05-16T11:30:41;5.55;;;1.60;;
37593;SDS011;23441;50.856;6.076;2023-05-16T11:33:07;5.30;;;1.17;;
37593;SDS011;23441;50.856;6.076;2023-05-16T11:35:33;5.70;;;1.55;;
37593;SDS011;23441;50.856;6.076;2023-05-16T11:37:59;4.88;;;1.40;;
37593;SDS011;23441;50.856;6.076;2023-05-16T11:40:25;2.78;;;1.30;;
37593;SDS011;23441;50.856;6.076;2023-05-16T11:42:51;6.38;;;1.80;;
37593;SDS011;23441;50.856;6.076;2023-05-16T11:45:17;5.88;;;1.67;;
37593;SDS011;23441;50.856;6.076;2023-05-16T11:47:46;7.63;;;1.27;;
37593;SDS011;23441;50.856;6.076;2023-05-16T11:50:13;7.32;;;1.73;;
37593;SDS011;23441;50.856;6.076;2023-05-16T11:52:44;4.15;;;1.80;;
37593;SDS011;23441;50.856;6.076;2023-05-16T11:55:12;3.63;;;1.38;;
37593;SDS011;23441;50.856;6.076;2023-05-16T11:57:38;7.55;;;1.88;;
37593;SDS011;23441;50.856;6.076;2023-05-16T12:00:13;3.33;;;1.40;;
37593;SDS011;23441;50.856;6.076;2023-05-16T12:02:41;3.47;;;1.45;;
37593;SDS011;23441;50.856;6.076;2023-05-16T12:05:07;6.13;;;1.77;;
37593;SDS011;23441;50.856;6.076;2023-05-16T12:07:34;4.93;;;1.33;;
37593;SDS011;23441;50.856;6.076;2023-05-16T12:10:04;3.60;;;1.23;;
37593;SDS011;23441;50.856;6.076;2023-05-16T12:12:31;4.00;;;1.42;;
37593;SDS011;23441;50.856;6.076;2023-05-16T12:14:57;7.78;;;1.63;;
37593;SDS011;23441;50.856;6.076;2023-05-16T12:17:23;5.68;;;1.88;;
37593;SDS011;23441;50.856;6.076;2023-05-16T12:19:49;6.00;;;1.50;;
37593;SDS011;23441;50.856;6.076;2023-05-16T12:22:15;4.35;;;1.63;;
37593;SDS011;23441;50.856;6.076;2023-05-16T12:24:42;9.05;;;1.80;;
37593;SDS011;23441;50.856;6.076;2023-05-16T12:27:08;7.82;;;1.75;;
37593;SDS011;23441;50.856;6.076;2023-05-16T12:29:34;3.58;;;1.65;;
37593;SDS011;23441;50.856;6.076;2023-05-16T12:31:59;9.45;;;1.50;;
37593;SDS011;23441;50.856;6.076;2023-05-16T12:34:27;7.63;;;2.03;;
37593;SDS011;23441;50.856;6.076;2023-05-16T12:36:53;11.35;;;2.03;;
37593;SDS011;23441;50.856;6.076;2023-05-16T12:39:20;5.95;;;1.55;;
37593;SDS011;23441;50.856;6.076;2023-05-16T12:41:47;6.53;;;1.75;;
37593;SDS011;23441;50.856;6.076;2023-05-16T12:44:13;6.97;;;1.90;;
37593;SDS011;23441;50.856;6.076;2023-05-16T12:46:48;6.63;;;1.40;;
37593;SDS011;23441;50.856;6.076;2023-05-16T12:49:18;2.75;;;1.13;;
37593;SDS011;23441;50.856;6.076;2023-05-16T12:51:52;2.10;;;1.33;;
37593;SDS011;23441;50.856;6.076;2023-05-16T12:54:19;6.65;;;1.25;;
37593;SDS011;23441;50.856;6.076;2023-05-16T12:56:46;3.17;;;1.65;;
37593;SDS011;23441;50.856;6.076;2023-05-16T12:59:12;4.65;;;1.48;;
37593;SDS011;23441;50.856;6.076;2023-05-16T13:01:38;7.57;;;1.73;;
37593;SDS011;23441;50.856;6.076;2023-05-16T13:04:05;8.70;;;2.03;;
37593;SDS011;23441;50.856;6.076;2023-05-16T13:06:32;5.30;;;1.40;;
37593;SDS011;23441;50.856;6.076;2023-05-16T13:08:58;5.20;;;1.60;;
37593;SDS011;23441;50.856;6.076;2023-05-16T13:11:24;6.65;;;1.70;;
37593;SDS011;23441;50.856;6.076;2023-05-16T13:13:50;2.58;;;1.50;;
37593;SDS011;23441;50.856;6.076;2023-05-16T13:26:47;5.35;;;1.25;;
37593;SDS011;23441;50.856;6.076;2023-05-16T13:29:13;3.08;;;1.42;;
37593;SDS011;23441;50.856;6.076;2023-05-16T13:31:38;5.03;;;1.58;;
37593;SDS011;23441;50.856;6.076;2023-05-16T13:34:04;5.90;;;1.58;;
37593;SDS011;23441;50.856;6.076;2023-05-16T13:36:30;5.07;;;1.48;;
37593;SDS011;23441;50.856;6.076;2023-05-16T13:38:56;3.50;;;1.40;;
37593;SDS011;23441;50.856;6.076;2023-05-16T13:41:21;2.60;;;1.17;;
37593;SDS011;23441;50.856;6.076;2023-05-16T13:43:47;3.92;;;1.27;;
37593;SDS011;23441;50.856;6.076;2023-05-16T13:46:13;3.33;;;1.23;;
37593;SDS011;23441;50.856;6.076;2023-05-16T13:48:39;5.88;;;1.30;;
37593;SDS011;23441;50.856;6.076;2023-05-16T13:51:06;4.30;;;1.30;;
37593;SDS011;23441;50.856;6.076;2023-05-16T13:53:32;5.60;;;1.50;;
37593;SDS011;23441;50.856;6.076;2023-05-16T13:55:57;4.90;;;1.40;;
37593;SDS011;23441;50.856;6.076;2023-05-16T13:58:23;4.93;;;1.40;;
37593;SDS011;23441;50.856;6.076;2023-05-16T14:00:50;7.97;;;1.88;;
37593;SDS011;23441;50.856;6.076;2023-05-16T14:03:16;4.13;;;1.38;;
37593;SDS011;23441;50.856;6.076;2023-05-16T14:05:41;3.58;;;1.73;;
37593;SDS011;23441;50.856;6.076;2023-05-16T14:08:07;5.60;;;1.50;;
37593;SDS011;23441;50.856;6.076;2023-05-16T14:10:33;4.30;;;1.45;;
37593;SDS011;23441;50.856;6.076;2023-05-16T14:12:58;5.45;;;1.40;;
37593;SDS011;23441;50.856;6.076;2023-05-16T14:15:24;6.97;;;1.58;;
37593;SDS011;23441;50.856;6.076;2023-05-16T14:17:49;4.93;;;1.40;;
37593;SDS011;23441;50.856;6.076;2023-05-16T14:20:15;5.15;;;1.90;;
37593;SDS011;23441;50.856;6.076;2023-05-16T14:22:41;4.45;;;1.63;;
37593;SDS011;23441;50.856;6.076;2023-05-16T14:25:07;6.43;;;1.77;;
37593;SDS011;23441;50.856;6.076;2023-05-16T14:27:32;5.63;;;1.70;;
37593;SDS011;23441;50.856;6.076;2023-05-16T14:29:58;4.53;;;1.45;;
37593;SDS011;23441;50.856;6.076;2023-05-16T14:32:24;8.43;;;1.92;;
37593;SDS011;23441;50.856;6.076;2023-05-16T14:34:50;5.80;;;1.77;;
37593;SDS011;23441;50.856;6.076;2023-05-16T14:37:15;4.43;;;1.90;;
37593;SDS011;23441;50.856;6.076;2023-05-16T14:39:43;7.97;;;1.75;;
37593;SDS011;23441;50.856;6.076;2023-05-16T14:42:10;7.70;;;2.08;;
37593;SDS011;23441;50.856;6.076;2023-05-16T14:44:37;7.38;;;1.90;;
37593;SDS011;23441;50.856;6.076;2023-05-16T14:47:02;5.45;;;1.40;;
37593;SDS011;23441;50.856;6.076;2023-05-16T14:49:28;7.22;;;2.08;;
37593;SDS011;23441;50.856;6.076;2023-05-16T14:51:54;4.78;;;1.60;;
37593;SDS011;23441;50.856;6.076;2023-05-16T14:54:20;6.10;;;1.95;;
37593;SDS011;23441;50.856;6.076;2023-05-16T14:56:46;6.32;;;1.83;;
37593;SDS011;23441;50.856;6.076;2023-05-16T14:59:11;6.85;;;1.63;;
37593;SDS011;23441;50.856;6.076;2023-05-16T15:01:38;5.38;;;1.73;;
37593;SDS011;23441;50.856;6.076;2023-05-16T15:04:03;8.60;;;1.90;;
37593;SDS011;23441;50.856;6.076;2023-05-16T15:06:29;8.30;;;1.95;;